createdAt,value
2023-04-18T00:00:27.756Z,7.37
2023-04-18T00:02:55.209Z,7.44
2023-04-18T00:05:22.260Z,7.38
2023-04-18T00:07:48.849Z,7.42
2023-04-18T00:10:15.535Z,7.38
2023-04-18T00:12:42.951Z,7.38
2023-04-18T00:15:10.426Z,7.37
2023-04-18T00:17:40.157Z,7.34
2023-04-18T00:20:10.859Z,7.33
2023-04-18T00:22:42.568Z,7.33
2023-04-18T00:25:10.564Z,7.38
2023-04-18T00:27:38.682Z,7.35
2023-04-18T00:30:09.058Z,7.32
2023-04-18T00:32:35.687Z,7.28
2023-04-18T00:35:02.451Z,7.30
2023-04-18T00:37:29.503Z,7.29
2023-04-18T00:39:55.992Z,7.30
2023-04-18T00:42:22.867Z,7.26
2023-04-18T00:44:49.413Z,7.29
2023-04-18T00:47:19.714Z,7.26
2023-04-18T00:49:47.593Z,7.28
2023-04-18T00:52:15.438Z,7.28
2023-04-18T00:54:43.014Z,7.27
2023-04-18T00:57:09.495Z,7.21
2023-04-18T00:59:36.077Z,7.21
2023-04-18T01:02:04.038Z,7.22
2023-04-18T01:04:32.600Z,7.21
2023-04-18T01:07:00.471Z,7.23
2023-04-18T01:09:27.159Z,7.21
2023-04-18T01:11:53.663Z,7.20
2023-04-18T01:14:20.732Z,7.19
2023-04-18T01:16:48.292Z,7.13
2023-04-18T01:19:17.367Z,7.16
2023-04-18T01:21:44.759Z,7.16
2023-04-18T01:24:15.912Z,7.18
2023-04-18T01:26:45.820Z,7.17
2023-04-18T01:29:12.376Z,7.15
2023-04-18T01:31:40.284Z,7.11
2023-04-18T01:34:07.841Z,7.08
2023-04-18T01:36:36.025Z,7.05
2023-04-18T01:39:02.637Z,7.03
2023-04-18T01:41:32.287Z,7.03
2023-04-18T01:43:59.522Z,6.98
2023-04-18T01:46:26.135Z,6.95
2023-04-18T01:48:53.015Z,6.93
2023-04-18T01:51:19.694Z,6.87
2023-04-18T01:53:46.131Z,6.90
2023-04-18T01:56:12.746Z,6.89
2023-04-18T01:58:39.374Z,6.86
2023-04-18T02:01:05.906Z,6.89
2023-04-18T02:03:32.549Z,6.87
2023-04-18T02:06:00.609Z,6.88
2023-04-18T02:08:27.157Z,6.83
2023-04-18T02:10:53.652Z,6.81
2023-04-18T02:13:20.189Z,6.83
2023-04-18T02:15:46.624Z,6.79
2023-04-18T02:18:13.268Z,6.77
2023-04-18T02:20:39.957Z,6.74
2023-04-18T02:23:07.077Z,6.74
2023-04-18T02:25:33.553Z,6.72
2023-04-18T02:28:00.040Z,6.72
2023-04-18T02:30:26.811Z,6.74
2023-04-18T02:32:54.694Z,6.77
2023-04-18T02:35:21.543Z,6.77
2023-04-18T02:37:48.067Z,6.81
2023-04-18T02:40:14.738Z,6.81
2023-04-18T02:42:41.253Z,6.84
2023-04-18T02:45:08.790Z,6.82
2023-04-18T02:47:46.998Z,6.82
2023-04-18T02:50:20.796Z,6.86
2023-04-18T02:52:47.394Z,6.87
2023-04-18T02:55:13.873Z,6.89
2023-04-18T02:57:40.274Z,6.88
2023-04-18T03:00:08.456Z,6.89
2023-04-18T03:02:35.122Z,6.88
2023-04-18T03:05:01.822Z,6.90
2023-04-18T03:07:28.384Z,6.91
2023-04-18T03:09:54.842Z,6.94
2023-04-18T03:12:21.363Z,6.92
2023-04-18T03:14:47.859Z,6.97
2023-04-18T03:17:14.416Z,7.00
2023-04-18T03:19:40.932Z,6.94
2023-04-18T03:22:07.409Z,6.95
2023-04-18T03:24:33.915Z,7.01
2023-04-18T03:27:00.680Z,7.02
2023-04-18T03:29:27.149Z,7.04
2023-04-18T03:31:53.655Z,7.06
2023-04-18T03:34:20.422Z,7.07
2023-04-18T03:36:48.207Z,7.09
2023-04-18T03:39:14.878Z,7.12
2023-04-18T03:41:41.329Z,7.11
2023-04-18T03:44:08.877Z,7.11
2023-04-18T03:46:35.551Z,7.10
2023-04-18T03:49:02.083Z,7.09
2023-04-18T03:51:34.141Z,7.19
2023-04-18T03:54:00.789Z,7.15
2023-04-18T03:56:27.437Z,7.13
2023-04-18T03:58:53.958Z,7.15
2023-04-18T04:01:21.595Z,7.15
2023-04-18T04:03:48.289Z,7.13
2023-04-18T04:06:14.920Z,7.13
2023-04-18T04:08:41.749Z,7.14
2023-04-18T04:11:08.192Z,7.18
2023-04-18T04:13:36.037Z,7.19
2023-04-18T04:16:02.722Z,7.20
2023-04-18T04:18:31.225Z,7.20
2023-04-18T04:20:59.240Z,7.18
2023-04-18T04:23:26.800Z,7.25
2023-04-18T04:25:54.208Z,7.26
2023-04-18T04:28:23.836Z,7.23
2023-04-18T04:30:50.865Z,7.21
2023-04-18T04:33:21.072Z,7.22
2023-04-18T04:35:47.928Z,7.26
2023-04-18T04:38:15.400Z,7.27
2023-04-18T04:40:42.686Z,7.28
2023-04-18T04:43:12.516Z,7.29
2023-04-18T04:45:42.206Z,7.26
2023-04-18T04:48:09.295Z,7.23
2023-04-18T04:50:37.384Z,7.29
2023-04-18T04:53:07.696Z,7.24
2023-04-18T04:55:34.610Z,7.28
2023-04-18T04:58:01.117Z,7.26
2023-04-18T05:00:28.845Z,7.34
2023-04-18T05:02:56.290Z,7.42
2023-04-18T05:05:23.120Z,7.38
2023-04-18T05:07:49.607Z,7.41
2023-04-18T05:10:16.227Z,7.44
2023-04-18T05:12:42.756Z,7.39
2023-04-18T05:15:09.590Z,7.44
2023-04-18T05:17:36.035Z,7.45
2023-04-18T05:20:02.998Z,7.48
2023-04-18T05:22:29.513Z,7.51
2023-04-18T05:24:56.020Z,7.46
2023-04-18T05:27:22.606Z,7.43
2023-04-18T05:29:50.241Z,7.44
2023-04-18T05:32:16.788Z,7.39
2023-04-18T05:34:43.403Z,7.42
2023-04-18T05:37:09.918Z,7.39
2023-04-18T05:39:37.759Z,7.48
2023-04-18T05:42:04.283Z,7.43
2023-04-18T05:44:30.769Z,7.54
2023-04-18T05:46:57.250Z,7.50
2023-04-18T05:49:23.733Z,7.57
2023-04-18T05:51:50.665Z,7.67
2023-04-18T05:54:17.242Z,7.79
2023-04-18T05:56:43.876Z,7.88
2023-04-18T05:59:10.774Z,7.84
2023-04-18T06:01:37.220Z,8.15
2023-04-18T06:04:03.909Z,8.08
2023-04-18T06:06:31.450Z,8.22
2023-04-18T06:08:57.998Z,8.36
2023-04-18T06:11:24.488Z,8.65
2023-04-18T06:13:51.017Z,8.62
2023-04-18T06:16:18.676Z,8.52
2023-04-18T06:18:45.270Z,8.68
2023-04-18T06:21:13.126Z,8.83
2023-04-18T06:23:39.651Z,9.03
2023-04-18T06:26:07.155Z,8.95
2023-04-18T06:28:33.614Z,9.04
2023-04-18T06:31:00.310Z,8.96
2023-04-18T06:33:26.881Z,8.88
2023-04-18T06:35:53.424Z,8.99
2023-04-18T06:38:20.440Z,9.27
2023-04-18T06:40:46.884Z,9.42
2023-04-18T06:43:13.303Z,9.46
2023-04-18T06:45:40.267Z,9.39
2023-04-18T06:48:08.940Z,9.13
2023-04-18T06:50:35.520Z,9.12
2023-04-18T06:53:02.290Z,9.08
2023-04-18T06:55:28.884Z,8.98
2023-04-18T06:57:55.585Z,9.39
2023-04-18T07:00:22.347Z,9.70
2023-04-18T07:02:49.132Z,9.77
2023-04-18T07:05:15.731Z,10.14
2023-04-18T07:07:42.182Z,9.94
2023-04-18T07:10:09.861Z,9.94
2023-04-18T07:12:36.433Z,10.25
2023-04-18T07:15:03.870Z,10.39
2023-04-18T07:17:30.604Z,10.57
2023-04-18T07:19:57.229Z,10.19
2023-04-18T07:22:23.751Z,10.25
2023-04-18T07:24:50.366Z,10.20
2023-04-18T07:27:16.887Z,10.03
2023-04-18T07:29:43.389Z,10.12
2023-04-18T07:32:10.862Z,10.44
2023-04-18T07:34:37.525Z,10.77
2023-04-18T07:37:04.195Z,10.80
2023-04-18T07:39:35.765Z,10.36
2023-04-18T07:42:03.698Z,10.35
2023-04-18T07:44:30.333Z,10.47
2023-04-18T07:46:57.117Z,10.36
2023-04-18T07:49:23.712Z,10.45
2023-04-18T07:51:50.202Z,10.64
2023-04-18T07:54:16.702Z,10.66
2023-04-18T07:56:43.150Z,10.74
2023-04-18T07:59:09.590Z,10.79
2023-04-18T08:01:36.122Z,10.84
2023-04-18T08:04:02.730Z,11.29
2023-04-18T08:06:29.438Z,11.50
2023-04-18T08:08:56.014Z,11.52
2023-04-18T08:11:22.625Z,11.56
2023-04-18T08:13:49.126Z,11.72
2023-04-18T08:16:17.439Z,11.96
2023-04-18T08:18:44.344Z,11.69
2023-04-18T08:21:11.034Z,11.62
2023-04-18T08:23:37.676Z,11.74
2023-04-18T08:26:04.315Z,11.74
2023-04-18T08:28:30.828Z,11.82
2023-04-18T08:30:57.385Z,11.93
2023-04-18T08:33:24.544Z,12.07
2023-04-18T08:35:51.871Z,11.87
2023-04-18T08:38:19.116Z,11.84
2023-04-18T08:40:46.392Z,12.12
2023-04-18T08:43:15.045Z,12.30
2023-04-18T08:45:43.205Z,12.33
2023-04-18T08:48:13.808Z,12.75
2023-04-18T08:50:41.516Z,12.69
2023-04-18T08:53:08.397Z,12.85
2023-04-18T08:55:35.653Z,12.76
2023-04-18T08:58:04.836Z,12.77
2023-04-18T09:00:31.394Z,13.07
2023-04-18T09:02:58.276Z,13.09
2023-04-18T09:05:26.733Z,13.23
2023-04-18T09:07:54.886Z,13.17
2023-04-18T09:10:40.371Z,13.16
2023-04-18T09:13:09.976Z,13.13
2023-04-18T09:15:36.507Z,13.06
2023-04-18T09:18:03.457Z,13.00
2023-04-18T09:20:38.345Z,13.29
2023-04-18T09:23:14.789Z,13.25
2023-04-18T09:25:43.599Z,13.10
2023-04-18T09:28:31.811Z,12.94
2023-04-18T09:31:19.055Z,13.14
2023-04-18T09:33:54.511Z,13.21
2023-04-18T09:36:22.238Z,13.44
2023-04-18T09:38:51.653Z,13.33
2023-04-18T09:41:21.389Z,13.15
2023-04-18T09:43:48.433Z,12.95
2023-04-18T09:46:17.472Z,13.10
2023-04-18T09:48:44.103Z,13.44
2023-04-18T09:51:14.409Z,13.53
2023-04-18T09:53:44.686Z,13.69
2023-04-18T09:56:32.293Z,13.71
2023-04-18T09:59:28.811Z,13.94
2023-04-18T10:01:58.174Z,13.94
2023-04-18T10:04:25.890Z,13.99
2023-04-18T10:06:54.184Z,14.03
2023-04-18T10:09:22.265Z,14.17
2023-04-18T10:11:48.834Z,13.80
2023-04-18T10:14:16.596Z,14.06
2023-04-18T10:16:45.574Z,14.40
2023-04-18T10:19:26.397Z,14.42
2023-04-18T10:21:57.428Z,14.21
2023-04-18T10:24:49.772Z,14.29
2023-04-18T10:27:18.125Z,14.08
2023-04-18T10:29:54.303Z,13.94
2023-04-18T10:32:23.881Z,14.15
2023-04-18T10:34:53.460Z,13.69
2023-04-18T10:37:20.251Z,13.99
2023-04-18T10:39:58.181Z,14.31
2023-04-18T10:42:52.617Z,13.80
2023-04-18T10:45:23.832Z,14.01
2023-04-18T10:47:50.747Z,14.26
2023-04-18T10:50:17.858Z,14.31
2023-04-18T10:52:44.406Z,14.03
2023-04-18T10:55:18.015Z,14.06
2023-04-18T10:57:48.732Z,14.08
2023-04-18T11:00:17.981Z,14.05
2023-04-18T11:02:53.693Z,14.42
2023-04-18T11:05:23.234Z,14.26
2023-04-18T11:07:50.279Z,14.17
2023-04-18T11:10:22.001Z,13.94
2023-04-18T11:12:48.806Z,14.15
2023-04-18T11:15:23.371Z,14.21
2023-04-18T11:17:58.613Z,14.40
2023-04-18T11:20:25.595Z,14.07
2023-04-18T11:22:57.771Z,13.88
2023-04-18T11:25:34.982Z,13.57
2023-04-18T11:28:04.452Z,13.95
2023-04-18T11:30:38.755Z,13.93
2023-04-18T11:33:09.898Z,13.98
2023-04-18T11:35:40.998Z,13.98
2023-04-18T11:38:08.746Z,13.78
2023-04-18T11:40:36.561Z,13.92
2023-04-18T11:43:05.027Z,14.16
2023-04-18T11:45:31.643Z,14.66
2023-04-18T11:47:59.561Z,14.71
2023-04-18T11:50:26.786Z,14.60
2023-04-18T11:52:55.009Z,14.61
2023-04-18T11:55:24.794Z,14.85
2023-04-18T11:57:56.797Z,14.99
2023-04-18T12:00:40.122Z,15.05
2023-04-18T12:03:15.594Z,14.85
2023-04-18T12:05:42.604Z,14.76
2023-04-18T12:08:14.295Z,14.82
2023-04-18T12:10:51.416Z,14.77
2023-04-18T12:13:18.999Z,14.87
2023-04-18T12:15:46.800Z,14.90
2023-04-18T12:18:15.362Z,14.84
2023-04-18T12:20:53.938Z,14.89
2023-04-18T12:23:35.699Z,14.75
2023-04-18T12:26:05.894Z,14.81
2023-04-18T12:28:35.848Z,14.94
2023-04-18T12:31:05.887Z,14.89
2023-04-18T12:33:38.674Z,14.82
2023-04-18T12:36:06.073Z,14.84
2023-04-18T12:38:32.908Z,14.84
2023-04-18T12:40:59.590Z,14.64
2023-04-18T12:43:26.677Z,14.60
2023-04-18T12:45:53.235Z,14.59
2023-04-18T12:48:19.706Z,14.58
2023-04-18T12:50:46.189Z,14.60
2023-04-18T12:53:12.716Z,14.86
2023-04-18T12:55:39.237Z,14.75
2023-04-18T12:58:05.747Z,15.34
2023-04-18T13:00:32.863Z,15.32
2023-04-18T13:03:00.037Z,15.20
2023-04-18T13:05:31.548Z,15.11
2023-04-18T13:08:15.154Z,15.12
2023-04-18T13:10:43.423Z,15.37
2023-04-18T13:13:10.006Z,15.16
2023-04-18T13:15:36.605Z,15.01
2023-04-18T13:18:06.077Z,14.96
2023-04-18T13:20:33.711Z,15.04
2023-04-18T13:23:00.373Z,15.13
2023-04-18T13:25:27.289Z,15.11
2023-04-18T13:27:53.818Z,15.42
2023-04-18T13:30:20.603Z,15.55
2023-04-18T13:32:47.302Z,15.67
2023-04-18T13:35:13.844Z,15.91
2023-04-18T13:37:40.425Z,16.02
2023-04-18T13:40:08.010Z,16.54
2023-04-18T13:42:36.406Z,16.40
2023-04-18T13:45:03.321Z,16.21
2023-04-18T13:47:29.965Z,15.99
2023-04-18T13:49:57.692Z,15.86
2023-04-18T13:52:24.569Z,15.53
2023-04-18T13:54:51.093Z,15.38
2023-04-18T13:57:17.556Z,15.10
2023-04-18T13:59:44.021Z,15.14
2023-04-18T14:02:10.946Z,15.24
2023-04-18T14:04:37.826Z,15.26
2023-04-18T14:07:06.227Z,15.48
2023-04-18T14:09:32.969Z,15.61
2023-04-18T14:11:59.556Z,15.78
2023-04-18T14:14:26.043Z,15.52
2023-04-18T14:16:53.771Z,15.54
2023-04-18T14:19:20.581Z,15.37
2023-04-18T14:21:47.903Z,15.50
2023-04-18T14:24:14.506Z,15.49
2023-04-18T14:26:41.075Z,15.20
2023-04-18T14:29:07.713Z,15.05
2023-04-18T14:31:34.837Z,15.04
2023-04-18T14:34:01.605Z,14.65
2023-04-18T14:36:28.189Z,14.72
2023-04-18T14:38:55.115Z,14.48
2023-04-18T14:41:21.828Z,14.41
2023-04-18T14:43:48.786Z,14.52
2023-04-18T14:46:19.027Z,14.43
2023-04-18T14:48:48.483Z,14.51
2023-04-18T14:51:17.228Z,14.49
2023-04-18T14:53:44.666Z,14.62
2023-04-18T14:56:11.552Z,14.78
2023-04-18T14:58:38.256Z,14.77
2023-04-18T15:01:05.178Z,14.69
2023-04-18T15:03:31.808Z,14.62
2023-04-18T15:05:58.539Z,14.67
2023-04-18T15:08:25.218Z,14.63
2023-04-18T15:10:51.625Z,14.65
2023-04-18T15:13:18.310Z,14.72
2023-04-18T15:15:51.675Z,14.97
2023-04-18T15:18:18.138Z,14.95
2023-04-18T15:20:44.731Z,14.89
2023-04-18T15:23:13.708Z,14.92
2023-04-18T15:25:41.553Z,14.80
2023-04-18T15:28:08.527Z,14.77
2023-04-18T15:30:35.342Z,14.88
2023-04-18T15:33:02.505Z,14.72
2023-04-18T15:35:29.117Z,14.72
2023-04-18T15:37:56.641Z,14.59
2023-04-18T15:40:23.609Z,14.56
2023-04-18T15:42:51.002Z,14.74
2023-04-18T15:45:17.664Z,14.96
2023-04-18T15:47:44.242Z,15.28
2023-04-18T15:50:11.141Z,15.61
2023-04-18T15:52:38.063Z,15.40
2023-04-18T15:55:05.256Z,15.37
2023-04-18T15:57:32.357Z,15.27
2023-04-18T15:59:59.668Z,15.16
2023-04-18T16:02:26.737Z,15.01
2023-04-18T16:04:53.397Z,15.02
2023-04-18T16:07:19.918Z,14.93
2023-04-18T16:09:46.505Z,14.65
2023-04-18T16:12:13.124Z,14.71
2023-04-18T16:14:40.141Z,15.03
2023-04-18T16:17:06.676Z,14.96
2023-04-18T16:19:35.068Z,15.03
2023-04-18T16:22:03.111Z,14.89
2023-04-18T16:24:30.835Z,14.98
2023-04-18T16:26:58.652Z,15.08
2023-04-18T16:29:25.306Z,14.88
2023-04-18T16:31:52.139Z,14.81
2023-04-18T16:34:18.671Z,14.73
2023-04-18T16:36:45.181Z,14.76
2023-04-18T16:39:12.013Z,14.77
2023-04-18T16:41:38.626Z,14.68
2023-04-18T16:44:05.395Z,14.66
2023-04-18T16:46:32.407Z,14.63
2023-04-18T16:48:59.382Z,14.62
2023-04-18T16:51:26.549Z,14.69
2023-04-18T16:53:53.151Z,14.57
2023-04-18T16:56:19.872Z,14.60
2023-04-18T16:58:46.781Z,14.55
2023-04-18T17:01:13.323Z,14.52
2023-04-18T17:03:40.006Z,14.44
2023-04-18T17:06:09.160Z,14.24
2023-04-18T17:08:35.966Z,14.26
2023-04-18T17:11:02.646Z,14.23
2023-04-18T17:13:31.694Z,14.04
2023-04-18T17:15:58.771Z,13.92
2023-04-18T17:18:25.671Z,13.93
2023-04-18T17:20:52.465Z,13.77
2023-04-18T17:23:19.320Z,13.70
2023-04-18T17:25:46.251Z,13.61
2023-04-18T17:28:13.846Z,13.51
2023-04-18T17:30:41.903Z,13.52
2023-04-18T17:33:09.652Z,13.43
2023-04-18T17:35:36.238Z,13.37
2023-04-18T17:38:03.340Z,13.31
2023-04-18T17:40:30.018Z,13.25
2023-04-18T17:42:56.652Z,13.25
2023-04-18T17:45:23.227Z,13.16
2023-04-18T17:47:50.835Z,13.12
2023-04-18T17:50:17.786Z,13.02
2023-04-18T17:52:46.353Z,12.95
2023-04-18T17:55:13.194Z,12.93
2023-04-18T17:57:39.845Z,12.91
2023-04-18T18:00:10.456Z,12.90
2023-04-18T18:02:37.900Z,12.88
2023-04-18T18:05:05.550Z,12.89
2023-04-18T18:07:34.831Z,12.87
2023-04-18T18:10:02.502Z,12.81
2023-04-18T18:12:29.122Z,12.85
2023-04-18T18:14:57.249Z,12.87
2023-04-18T18:17:24.571Z,12.88
2023-04-18T18:19:51.111Z,12.87
2023-04-18T18:22:17.991Z,12.88
2023-04-18T18:24:44.502Z,12.88
2023-04-18T18:27:12.295Z,12.83
2023-04-18T18:29:38.856Z,12.87
2023-04-18T18:32:05.853Z,12.84
2023-04-18T18:34:32.773Z,12.77
2023-04-18T18:36:59.235Z,12.90
2023-04-18T18:39:25.820Z,12.78
2023-04-18T18:41:52.860Z,12.76
2023-04-18T18:44:19.713Z,12.69
2023-04-18T18:46:46.976Z,12.65
2023-04-18T18:49:14.121Z,12.62
2023-04-18T18:51:41.295Z,12.55
2023-04-18T18:54:08.024Z,12.57
2023-04-18T18:56:34.646Z,12.57
2023-04-18T18:59:01.364Z,12.48
2023-04-18T19:01:30.206Z,12.44
2023-04-18T19:03:56.987Z,12.39
2023-04-18T19:06:24.010Z,12.38
2023-04-18T19:08:50.820Z,12.32
2023-04-18T19:11:18.819Z,12.29
2023-04-18T19:13:45.822Z,12.22
2023-04-18T19:16:12.573Z,12.24
2023-04-18T19:18:40.804Z,12.16
2023-04-18T19:21:07.615Z,12.11
2023-04-18T19:23:34.382Z,12.04
2023-04-18T19:26:00.863Z,12.03
2023-04-18T19:28:27.796Z,12.08
2023-04-18T19:30:54.355Z,12.02
2023-04-18T19:33:21.331Z,12.01
2023-04-18T19:35:48.092Z,11.95
2023-04-18T19:38:14.596Z,11.84
2023-04-18T19:40:41.363Z,11.71
2023-04-18T19:43:08.137Z,11.74
2023-04-18T19:45:34.764Z,11.68
2023-04-18T19:48:01.411Z,11.66
2023-04-18T19:50:28.359Z,11.63
2023-04-18T19:52:54.987Z,11.59
2023-04-18T19:55:21.857Z,11.53
2023-04-18T19:57:48.880Z,11.47
2023-04-18T20:00:16.049Z,11.38
2023-04-18T20:02:42.915Z,11.29
2023-04-18T20:05:10.179Z,11.25
2023-04-18T20:07:37.078Z,11.20
2023-04-18T20:10:04.525Z,11.15
2023-04-18T20:12:31.395Z,11.13
2023-04-18T20:14:58.946Z,11.00
2023-04-18T20:17:26.220Z,10.93
2023-04-18T20:19:53.070Z,10.94
2023-04-18T20:22:19.844Z,10.91
2023-04-18T20:24:48.142Z,10.88
2023-04-18T20:27:15.306Z,10.84
2023-04-18T20:29:41.942Z,10.76
2023-04-18T20:32:08.533Z,10.74
2023-04-18T20:34:35.827Z,10.77
2023-04-18T20:37:02.358Z,10.73
2023-04-18T20:39:28.832Z,10.68
2023-04-18T20:41:57.607Z,10.68
2023-04-18T20:44:24.927Z,10.63
2023-04-18T20:46:53.973Z,10.60
2023-04-18T20:49:20.574Z,10.56
2023-04-18T20:51:47.119Z,10.49
2023-04-18T20:54:13.972Z,10.42
2023-04-18T20:56:40.827Z,10.39
2023-04-18T20:59:07.349Z,10.38
2023-04-18T21:01:35.450Z,10.37
2023-04-18T21:04:03.338Z,10.30
2023-04-18T21:06:29.950Z,10.23
2023-04-18T21:08:56.447Z,10.18
2023-04-18T21:11:23.538Z,10.21
2023-04-18T21:13:50.070Z,10.18
2023-04-18T21:16:16.749Z,10.12
2023-04-18T21:18:43.292Z,10.08
2023-04-18T21:21:09.804Z,10.06
2023-04-18T21:23:43.376Z,10.01
2023-04-18T21:26:13.378Z,9.98
2023-04-18T21:28:58.183Z,9.96
2023-04-18T21:31:26.685Z,9.97
2023-04-18T21:33:57.417Z,9.98
2023-04-18T21:36:26.348Z,9.89
2023-04-18T21:38:54.000Z,9.89
2023-04-18T21:41:20.923Z,9.88
2023-04-18T21:43:47.895Z,9.81
2023-04-18T21:46:14.974Z,9.81
2023-04-18T21:48:43.484Z,9.82
2023-04-18T21:51:11.556Z,9.81
2023-04-18T21:53:38.916Z,9.80
2023-04-18T21:56:06.059Z,9.78
2023-04-18T21:58:32.872Z,9.74
2023-04-18T22:00:59.724Z,9.73
2023-04-18T22:03:28.427Z,9.72
2023-04-18T22:05:58.445Z,9.71
2023-04-18T22:08:28.276Z,9.66
2023-04-18T22:10:56.436Z,9.63
2023-04-18T22:13:23.767Z,9.61
2023-04-18T22:15:51.487Z,9.61
2023-04-18T22:18:18.968Z,9.55
2023-04-18T22:20:46.888Z,9.54
2023-04-18T22:23:14.246Z,9.55
2023-04-18T22:25:40.915Z,9.56
2023-04-18T22:28:07.701Z,9.49
2023-04-18T22:30:34.355Z,9.45
2023-04-18T22:33:00.912Z,9.40
2023-04-18T22:35:27.472Z,9.34
2023-04-18T22:37:55.287Z,9.31
2023-04-18T22:40:21.776Z,9.34
2023-04-18T22:42:48.329Z,9.23
2023-04-18T22:45:15.515Z,9.20
2023-04-18T22:47:42.042Z,9.12
2023-04-18T22:50:08.915Z,9.08
2023-04-18T22:52:35.555Z,9.05
2023-04-18T22:55:02.953Z,9.03
2023-04-18T22:57:29.737Z,8.95
2023-04-18T22:59:56.448Z,8.89
2023-04-18T23:02:23.205Z,8.71
2023-04-18T23:04:50.632Z,8.70
2023-04-18T23:07:17.192Z,8.64
2023-04-18T23:09:43.698Z,8.62
2023-04-18T23:12:10.149Z,8.56
2023-04-18T23:14:36.641Z,8.47
2023-04-18T23:17:03.184Z,8.45
2023-04-18T23:19:29.658Z,8.43
2023-04-18T23:21:56.162Z,8.37
2023-04-18T23:24:22.625Z,8.42
2023-04-18T23:26:49.048Z,8.37
2023-04-18T23:29:15.571Z,8.26
2023-04-18T23:31:42.101Z,8.23
2023-04-18T23:34:09.934Z,8.22
2023-04-18T23:36:37.171Z,8.23
2023-04-18T23:39:04.266Z,8.20
2023-04-18T23:41:30.821Z,8.20
2023-04-18T23:43:57.311Z,8.15
2023-04-18T23:46:23.864Z,8.14
2023-04-18T23:48:50.362Z,8.12
2023-04-18T23:51:16.873Z,8.13
2023-04-18T23:53:43.349Z,8.10
2023-04-18T23:56:10.007Z,8.09
2023-04-18T23:58:36.450Z,8.06
